createdAt,value
2022-11-20T00:01:26.656Z,5.43
2022-11-20T00:03:55.192Z,5.75
2022-11-20T00:06:23.114Z,5.07
2022-11-20T00:08:50.544Z,4.55
2022-11-20T00:11:20.352Z,4.30
2022-11-20T00:13:49.353Z,4.60
2022-11-20T00:16:19.062Z,4.20
2022-11-20T00:18:46.700Z,4.60
2022-11-20T00:21:19.307Z,5.03
2022-11-20T00:23:46.260Z,6.05
2022-11-20T00:28:41.732Z,5.47
2022-11-20T00:31:14.600Z,5.15
2022-11-20T00:33:42.883Z,5.75
2022-11-20T00:36:15.806Z,5.72
2022-11-20T00:38:43.433Z,5.85
2022-11-20T00:41:12.188Z,5.22
2022-11-20T00:43:39.087Z,6.22
2022-11-20T00:46:11.461Z,5.55
2022-11-20T00:48:38.322Z,6.03
2022-11-20T00:51:06.693Z,5.65
2022-11-20T00:53:33.574Z,6.03
2022-11-20T00:56:06.564Z,6.43
2022-11-20T00:58:35.781Z,6.13
2022-11-20T01:01:08.721Z,5.72
2022-11-20T01:03:37.959Z,6.13
2022-11-20T01:06:07.728Z,6.10
2022-11-20T01:08:36.064Z,6.32
2022-11-20T01:11:04.744Z,5.88
2022-11-20T01:13:38.048Z,6.15
2022-11-20T01:16:09.834Z,6.00
2022-11-20T01:18:38.387Z,5.38
2022-11-20T01:21:11.731Z,6.20
2022-11-20T01:26:09.173Z,5.57
2022-11-20T01:28:36.752Z,5.78
2022-11-20T01:31:13.946Z,5.75
2022-11-20T01:33:42.063Z,4.80
2022-11-20T01:36:09.793Z,5.45
2022-11-20T01:38:36.699Z,5.53
2022-11-20T01:41:03.934Z,5.30
2022-11-20T01:43:30.965Z,5.60
2022-11-20T01:48:27.677Z,5.22
2022-11-20T01:50:55.105Z,5.22
2022-11-20T01:53:26.411Z,5.22
2022-11-20T01:55:57.746Z,4.90
2022-11-20T01:58:29.876Z,4.28
2022-11-20T02:00:56.917Z,4.82
2022-11-20T02:05:57.543Z,5.00
2022-11-20T02:08:25.468Z,4.80
2022-11-20T02:10:52.248Z,4.80
2022-11-20T02:13:37.584Z,4.68
2022-11-20T02:16:05.027Z,4.75
2022-11-20T02:18:32.093Z,4.00
2022-11-20T02:23:44.283Z,4.35
2022-11-20T02:26:14.111Z,4.85
2022-11-20T02:28:40.896Z,4.78
2022-11-20T02:31:08.736Z,4.40
2022-11-20T02:33:35.447Z,4.55
2022-11-20T02:36:02.528Z,4.43
2022-11-20T02:40:56.040Z,4.15
2022-11-20T02:43:23.608Z,4.22
2022-11-20T02:45:50.964Z,4.28
2022-11-20T02:48:17.786Z,4.47
2022-11-20T02:50:44.482Z,4.18
2022-11-20T02:53:11.227Z,4.13
2022-11-20T02:55:38.045Z,4.10
2022-11-20T02:58:04.885Z,4.53
2022-11-20T03:00:31.736Z,4.50
2022-11-20T03:02:58.568Z,4.07
2022-11-20T03:05:25.330Z,4.47
2022-11-20T03:07:52.092Z,3.90
2022-11-20T03:10:18.909Z,3.80
2022-11-20T03:12:46.465Z,3.85
2022-11-20T03:15:13.301Z,3.90
2022-11-20T03:17:40.106Z,4.10
2022-11-20T03:20:07.621Z,3.65
2022-11-20T03:22:34.377Z,3.85
2022-11-20T03:25:01.129Z,4.22
2022-11-20T03:27:27.895Z,3.70
2022-11-20T03:29:54.619Z,4.45
2022-11-20T03:32:21.412Z,4.25
2022-11-20T03:34:48.105Z,4.13
2022-11-20T03:37:14.924Z,3.92
2022-11-20T03:39:41.640Z,3.92
2022-11-20T03:42:29.841Z,3.95
2022-11-20T03:44:56.581Z,4.50
2022-11-20T03:47:23.434Z,4.47
2022-11-20T03:49:50.296Z,4.32
2022-11-20T03:52:17.052Z,4.10
2022-11-20T03:54:43.724Z,3.83
2022-11-20T03:57:10.524Z,3.83
2022-11-20T03:59:37.381Z,3.85
2022-11-20T04:02:04.233Z,3.42
2022-11-20T04:04:31.080Z,3.60
2022-11-20T04:06:57.945Z,3.15
2022-11-20T04:09:24.793Z,3.60
2022-11-20T04:11:51.522Z,3.10
2022-11-20T04:14:18.567Z,3.65
2022-11-20T04:16:45.369Z,3.38
2022-11-20T04:19:14.880Z,3.65
2022-11-20T04:21:42.308Z,3.30
2022-11-20T04:24:09.286Z,3.22
2022-11-20T04:29:02.903Z,3.75
2022-11-20T04:31:32.551Z,3.38
2022-11-20T04:34:04.010Z,3.70
2022-11-20T04:36:31.583Z,3.25
2022-11-20T04:39:00.581Z,3.70
2022-11-20T04:41:32.678Z,3.50
2022-11-20T04:44:03.976Z,3.28
2022-11-20T04:46:36.696Z,3.67
2022-11-20T04:49:04.031Z,3.45
2022-11-20T04:51:30.824Z,3.20
2022-11-20T04:53:57.852Z,3.70
2022-11-20T04:58:51.817Z,3.10
2022-11-20T05:01:22.058Z,3.22
2022-11-20T05:03:49.464Z,3.50
2022-11-20T05:06:18.370Z,3.22
2022-11-20T05:08:45.178Z,3.33
2022-11-20T05:11:21.885Z,3.50
2022-11-20T05:13:49.453Z,3.53
2022-11-20T05:16:21.571Z,3.40
2022-11-20T05:18:49.441Z,3.03
2022-11-20T05:21:17.006Z,3.50
2022-11-20T05:23:44.828Z,3.25
2022-11-20T05:26:20.325Z,3.60
2022-11-20T05:28:47.965Z,3.42
2022-11-20T05:31:21.935Z,3.20
2022-11-20T05:33:51.996Z,3.15
2022-11-20T05:36:19.121Z,3.22
2022-11-20T05:38:50.231Z,3.47
2022-11-20T05:41:19.623Z,3.55
2022-11-20T05:43:48.106Z,3.22
2022-11-20T05:46:17.682Z,3.30
2022-11-20T05:48:45.598Z,3.58
2022-11-20T05:51:15.287Z,3.75
2022-11-20T05:53:46.840Z,3.30
2022-11-20T05:56:18.219Z,3.35
2022-11-20T05:58:45.924Z,3.40
2022-11-20T06:01:16.941Z,3.20
2022-11-20T06:03:47.016Z,2.97
2022-11-20T06:06:15.070Z,3.13
2022-11-20T06:08:42.019Z,3.38
2022-11-20T06:11:10.569Z,3.00
2022-11-20T06:13:41.882Z,3.17
2022-11-20T06:16:10.576Z,3.13
2022-11-20T06:18:37.782Z,2.97
2022-11-20T06:21:09.970Z,3.28
2022-11-20T06:23:37.471Z,3.25
2022-11-20T06:26:11.747Z,3.10
2022-11-20T06:28:38.979Z,3.00
2022-11-20T06:31:07.190Z,2.97
2022-11-20T06:33:34.206Z,3.10
2022-11-20T06:38:35.930Z,3.42
2022-11-20T06:41:03.892Z,3.05
2022-11-20T06:43:31.002Z,3.22
2022-11-20T06:45:59.243Z,3.28
2022-11-20T06:48:28.372Z,2.95
2022-11-20T06:50:55.272Z,3.05
2022-11-20T06:53:23.435Z,2.97
2022-11-20T06:55:50.991Z,2.67
2022-11-20T06:58:18.879Z,3.17
2022-11-20T07:00:46.031Z,3.08
2022-11-20T07:03:13.700Z,3.10
2022-11-20T07:05:41.267Z,2.92
2022-11-20T07:08:08.623Z,3.13
2022-11-20T07:10:35.575Z,3.13
2022-11-20T07:13:02.416Z,2.60
2022-11-20T07:15:29.528Z,3.20
2022-11-20T07:20:22.842Z,2.88
2022-11-20T07:22:58.087Z,3.15
2022-11-20T07:25:26.384Z,3.13
2022-11-20T07:27:53.424Z,2.95
2022-11-20T07:30:20.226Z,3.08
2022-11-20T07:32:48.611Z,2.83
2022-11-20T07:35:15.456Z,2.70
2022-11-20T07:37:42.275Z,2.92
2022-11-20T07:40:10.557Z,3.00
2022-11-20T07:42:37.331Z,2.95
2022-11-20T07:45:04.336Z,2.70
2022-11-20T07:47:37.219Z,2.67
2022-11-20T07:50:04.290Z,2.92
2022-11-20T07:54:57.785Z,2.50
2022-11-20T07:57:28.255Z,2.72
2022-11-20T07:59:55.261Z,2.83
2022-11-20T08:02:22.099Z,3.17
2022-11-20T08:04:48.851Z,2.80
2022-11-20T08:07:15.790Z,2.60
2022-11-20T08:09:42.549Z,3.10
2022-11-20T08:12:28.603Z,2.72
2022-11-20T08:14:57.721Z,2.95
2022-11-20T08:17:24.502Z,3.10
2022-11-20T08:19:51.288Z,3.03
2022-11-20T08:22:18.653Z,2.92
2022-11-20T08:24:45.383Z,2.83
2022-11-20T08:27:12.207Z,3.10
2022-11-20T08:29:38.970Z,3.08
2022-11-20T08:32:05.774Z,3.20
2022-11-20T08:34:32.630Z,2.92
2022-11-20T08:36:59.867Z,3.08
2022-11-20T08:39:26.559Z,3.33
2022-11-20T08:41:53.326Z,3.58
2022-11-20T08:44:20.121Z,3.50
2022-11-20T08:46:48.056Z,3.42
2022-11-20T08:49:15.911Z,3.70
2022-11-20T08:51:43.287Z,3.22
2022-11-20T08:54:10.079Z,3.63
2022-11-20T08:56:36.859Z,3.88
2022-11-20T08:59:26.858Z,3.72
2022-11-20T09:01:50.915Z,3.20
2022-11-20T09:04:17.690Z,3.03
2022-11-20T09:06:46.000Z,3.25
2022-11-20T09:09:12.730Z,2.78
2022-11-20T09:11:39.509Z,2.55
2022-11-20T09:14:06.310Z,2.38
2022-11-20T09:16:33.121Z,2.30
2022-11-20T09:19:20.586Z,2.08
2022-11-20T09:21:46.689Z,2.20
2022-11-20T09:24:13.586Z,2.33
2022-11-20T09:29:07.124Z,2.10
2022-11-20T09:34:00.657Z,2.03
2022-11-20T09:36:27.486Z,1.92
2022-11-20T09:38:54.865Z,2.42
2022-11-20T09:41:33.775Z,1.60
2022-11-20T09:44:21.766Z,2.08
2022-11-20T09:47:33.809Z,2.30
2022-11-20T09:50:22.210Z,1.90
2022-11-20T09:52:58.111Z,2.10
2022-11-20T09:55:25.686Z,2.40
2022-11-20T09:57:53.528Z,2.55
2022-11-20T10:00:22.260Z,2.72
2022-11-20T10:03:18.960Z,2.38
2022-11-20T10:05:52.220Z,2.80
2022-11-20T10:11:11.161Z,2.42
2022-11-20T10:14:00.855Z,2.50
2022-11-20T10:16:40.561Z,2.70
2022-11-20T10:19:07.807Z,2.50
2022-11-20T10:21:36.730Z,2.80
2022-11-20T10:24:18.183Z,2.45
2022-11-20T10:27:03.711Z,2.33
2022-11-20T10:29:35.301Z,2.90
2022-11-20T10:32:08.763Z,2.42
2022-11-20T10:34:39.995Z,2.67
2022-11-20T10:37:13.959Z,2.80
2022-11-20T10:40:04.693Z,2.85
2022-11-20T10:42:59.977Z,2.42
2022-11-20T10:45:27.111Z,2.40
2022-11-20T10:48:17.650Z,2.55
2022-11-20T10:51:06.078Z,2.15
2022-11-20T10:53:41.518Z,2.72
2022-11-20T10:56:26.377Z,2.78
2022-11-20T10:59:26.949Z,3.03
2022-11-20T11:01:53.936Z,2.63
2022-11-20T11:04:29.685Z,2.50
2022-11-20T11:07:10.704Z,2.80
2022-11-20T11:09:45.140Z,2.55
2022-11-20T11:12:12.482Z,2.42
2022-11-20T11:15:05.616Z,2.55
2022-11-20T11:17:34.277Z,2.55
2022-11-20T11:20:04.125Z,2.50
2022-11-20T11:22:33.803Z,2.40
2022-11-20T11:25:00.921Z,2.83
2022-11-20T11:27:28.493Z,2.70
2022-11-20T11:30:15.721Z,3.20
2022-11-20T11:32:42.581Z,2.85
2022-11-20T11:38:10.679Z,3.05
2022-11-20T11:40:40.842Z,2.83
2022-11-20T11:43:38.110Z,3.10
2022-11-20T11:46:23.064Z,2.83
2022-11-20T11:49:11.336Z,2.90
2022-11-20T11:51:59.829Z,3.05
2022-11-20T11:54:35.628Z,2.70
2022-11-20T11:57:11.295Z,3.30
2022-11-20T12:00:04.047Z,3.17
2022-11-20T12:02:49.795Z,4.00
2022-11-20T12:05:21.377Z,5.25
2022-11-20T12:08:14.431Z,6.00
2022-11-20T12:10:54.431Z,6.68
2022-11-20T12:13:46.357Z,6.65
2022-11-20T12:16:15.890Z,6.88
2022-11-20T12:18:43.862Z,7.95
2022-11-20T12:21:23.791Z,7.20
2022-11-20T12:24:03.355Z,8.07
2022-11-20T12:27:07.703Z,8.05
2022-11-20T12:30:02.582Z,8.70
2022-11-20T12:32:35.344Z,9.18
2022-11-20T12:35:31.652Z,9.57
2022-11-20T12:38:53.201Z,8.80
2022-11-20T12:41:59.329Z,9.50
2022-11-20T12:45:09.523Z,9.15
2022-11-20T12:47:57.181Z,9.50
2022-11-20T12:50:30.650Z,10.05
2022-11-20T12:53:17.257Z,10.77
2022-11-20T12:56:07.228Z,10.93
2022-11-20T12:59:10.643Z,10.32
2022-11-20T13:01:51.387Z,10.35
2022-11-20T13:04:39.440Z,10.40
2022-11-20T13:07:17.227Z,10.75
2022-11-20T13:09:47.949Z,11.10
2022-11-20T13:12:34.364Z,10.10
2022-11-20T13:15:18.953Z,10.00
2022-11-20T13:18:15.524Z,10.10
2022-11-20T13:20:47.639Z,11.48
2022-11-20T13:23:28.504Z,11.30
2022-11-20T13:26:16.861Z,12.20
2022-11-20T13:28:43.883Z,11.88
2022-11-20T13:31:26.893Z,12.85
2022-11-20T13:33:56.430Z,12.45
2022-11-20T13:36:27.564Z,12.00
2022-11-20T13:38:56.145Z,12.02
2022-11-20T13:41:33.167Z,11.13
2022-11-20T13:44:15.122Z,12.05
2022-11-20T13:46:47.216Z,11.73
2022-11-20T13:49:44.804Z,12.60
2022-11-20T13:52:49.276Z,11.15
2022-11-20T13:55:37.577Z,11.27
2022-11-20T13:58:21.829Z,11.10
2022-11-20T14:01:01.966Z,11.43
2022-11-20T14:03:58.870Z,11.38
2022-11-20T14:06:32.518Z,11.82
2022-11-20T14:11:30.963Z,11.52
2022-11-20T14:14:05.900Z,12.43
2022-11-20T14:16:37.270Z,12.93
2022-11-20T14:19:22.360Z,12.02
2022-11-20T14:21:53.714Z,11.73
2022-11-20T14:24:24.981Z,11.50
2022-11-20T14:26:53.093Z,12.18
2022-11-20T14:29:28.017Z,12.80
2022-11-20T14:31:56.751Z,11.85
2022-11-20T14:34:27.187Z,11.88
2022-11-20T14:36:58.143Z,12.00
2022-11-20T14:39:34.191Z,11.90
2022-11-20T14:42:01.620Z,12.90
2022-11-20T14:44:34.917Z,12.57
2022-11-20T14:47:03.521Z,12.32
2022-11-20T14:49:33.048Z,12.25
2022-11-20T14:52:11.507Z,13.38
2022-11-20T14:54:46.257Z,13.15
2022-11-20T14:57:22.396Z,12.95
2022-11-20T14:59:49.266Z,13.13
2022-11-20T15:02:16.831Z,14.30
2022-11-20T15:04:51.702Z,13.48
2022-11-20T15:07:30.151Z,15.20
2022-11-20T15:10:12.968Z,14.02
2022-11-20T15:12:48.694Z,14.30
2022-11-20T15:15:24.226Z,13.75
2022-11-20T15:17:51.520Z,14.18
2022-11-20T15:20:18.690Z,12.85
2022-11-20T15:22:45.580Z,13.85
2022-11-20T15:25:17.146Z,12.93
2022-11-20T15:27:45.196Z,13.75
2022-11-20T15:30:20.953Z,13.40
2022-11-20T15:32:48.299Z,13.00
2022-11-20T15:35:16.268Z,14.48
2022-11-20T15:37:43.768Z,14.00
2022-11-20T15:40:10.841Z,13.30
2022-11-20T15:42:37.708Z,13.65
2022-11-20T15:47:34.063Z,12.90
2022-11-20T15:50:01.278Z,14.27
2022-11-20T15:52:30.537Z,13.50
2022-11-20T15:55:09.672Z,14.20
2022-11-20T15:57:36.713Z,13.48
2022-11-20T16:00:04.139Z,13.30
2022-11-20T16:02:30.874Z,13.80
2022-11-20T16:04:57.780Z,14.13
2022-11-20T16:07:24.581Z,14.02
2022-11-20T16:12:37.970Z,13.95
2022-11-20T16:15:23.868Z,13.95
2022-11-20T16:20:17.709Z,14.15
2022-11-20T16:22:44.483Z,13.98
2022-11-20T16:25:11.278Z,14.35
2022-11-20T16:30:05.121Z,13.52
2022-11-20T16:32:32.276Z,14.30
2022-11-20T16:34:59.070Z,15.27
2022-11-20T16:39:52.540Z,14.98
2022-11-20T16:44:47.824Z,15.07
2022-11-20T16:47:14.569Z,15.40
2022-11-20T16:49:41.434Z,14.95
2022-11-20T16:54:34.812Z,14.70
2022-11-20T16:59:28.211Z,15.38
2022-11-20T17:01:55.018Z,15.57
2022-11-20T17:06:49.228Z,16.38
2022-11-20T17:09:16.132Z,16.33
2022-11-20T17:14:11.563Z,14.70
2022-11-20T17:16:38.590Z,16.58
2022-11-20T17:19:06.047Z,17.23
2022-11-20T17:21:36.125Z,17.70
2022-11-20T17:24:05.760Z,16.25
2022-11-20T17:26:32.733Z,18.13
2022-11-20T17:29:10.045Z,23.63
2022-11-20T17:31:40.350Z,17.02
2022-11-20T17:34:08.646Z,16.95
2022-11-20T17:36:35.885Z,17.48
2022-11-20T17:39:03.813Z,17.38
2022-11-20T17:43:59.434Z,17.60
2022-11-20T17:46:29.429Z,16.70
2022-11-20T17:48:56.737Z,17.65
2022-11-20T17:51:30.585Z,17.85
2022-11-20T17:54:01.934Z,17.52
2022-11-20T17:56:54.019Z,19.70
2022-11-20T17:59:20.950Z,19.77
2022-11-20T18:04:14.948Z,19.23
2022-11-20T18:06:42.814Z,19.75
2022-11-20T18:09:09.591Z,19.27
2022-11-20T18:11:38.621Z,18.75
2022-11-20T18:14:26.590Z,18.52
2022-11-20T18:16:56.205Z,19.42
2022-11-20T18:19:32.483Z,18.95
2022-11-20T18:22:01.809Z,19.70
2022-11-20T18:24:29.068Z,19.58
2022-11-20T18:26:57.644Z,17.70
2022-11-20T18:29:25.745Z,18.02
2022-11-20T18:31:53.158Z,18.02
2022-11-20T18:34:20.016Z,18.85
2022-11-20T18:36:46.796Z,17.58
2022-11-20T18:39:15.102Z,16.98
2022-11-20T18:42:01.393Z,18.00
2022-11-20T18:44:48.871Z,17.77
2022-11-20T18:47:36.132Z,18.05
2022-11-20T18:50:04.073Z,18.10
2022-11-20T18:52:38.524Z,17.83
2022-11-20T18:55:06.337Z,18.27
2022-11-20T18:57:33.177Z,17.77
2022-11-20T19:00:05.038Z,18.98
2022-11-20T19:02:37.922Z,18.48
2022-11-20T19:05:08.594Z,17.90
2022-11-20T19:07:35.467Z,18.73
2022-11-20T19:12:31.871Z,18.40
2022-11-20T19:14:58.598Z,17.23
2022-11-20T19:17:25.314Z,18.55
2022-11-20T19:19:54.802Z,18.05
2022-11-20T19:22:21.841Z,19.17
2022-11-20T19:24:49.271Z,17.42
2022-11-20T19:27:16.051Z,18.90
2022-11-20T19:29:42.864Z,18.63
2022-11-20T19:32:09.769Z,17.92
2022-11-20T19:34:36.981Z,18.50
2022-11-20T19:37:03.792Z,18.30
2022-11-20T19:39:30.636Z,19.08
2022-11-20T19:41:57.452Z,18.88
2022-11-20T19:44:24.200Z,19.13
2022-11-20T19:46:51.020Z,19.58
2022-11-20T19:49:18.145Z,18.88
2022-11-20T19:51:47.497Z,19.42
2022-11-20T19:54:14.895Z,19.20
2022-11-20T19:56:41.883Z,19.02
2022-11-20T20:01:35.615Z,18.50
2022-11-20T20:04:03.649Z,18.88
2022-11-20T20:06:31.885Z,20.00
2022-11-20T20:09:04.509Z,19.50
2022-11-20T20:11:33.013Z,19.70
2022-11-20T20:14:08.629Z,18.65
2022-11-20T20:16:35.734Z,20.00
2022-11-20T20:19:04.389Z,19.70
2022-11-20T20:21:32.832Z,19.77
2022-11-20T20:24:00.756Z,19.27
2022-11-20T20:26:30.788Z,19.83
2022-11-20T20:28:57.705Z,21.13
2022-11-20T20:31:27.631Z,20.10
2022-11-20T20:33:55.072Z,20.85
2022-11-20T20:36:23.710Z,20.20
2022-11-20T20:38:59.479Z,19.48
2022-11-20T20:41:26.327Z,19.20
2022-11-20T20:44:12.076Z,20.42
2022-11-20T20:46:39.778Z,18.15
2022-11-20T20:49:07.373Z,17.85
2022-11-20T20:51:34.699Z,18.17
2022-11-20T20:54:01.826Z,18.25
2022-11-20T20:56:28.634Z,18.30
2022-11-20T20:58:55.418Z,19.40
2022-11-20T21:01:22.998Z,18.35
2022-11-20T21:03:49.938Z,18.05
2022-11-20T21:06:18.933Z,18.45
2022-11-20T21:08:46.154Z,19.42
2022-11-20T21:11:15.696Z,18.88
2022-11-20T21:13:44.912Z,18.42
2022-11-20T21:16:13.674Z,18.05
2022-11-20T21:18:40.793Z,18.40
2022-11-20T21:21:27.669Z,19.73
2022-11-20T21:23:54.583Z,18.70
2022-11-20T21:26:22.181Z,18.75
2022-11-20T21:28:49.959Z,19.48
2022-11-20T21:31:22.237Z,18.52
2022-11-20T21:33:50.600Z,18.65
2022-11-20T21:36:19.642Z,18.25
2022-11-20T21:38:47.379Z,18.55
2022-11-20T21:41:15.406Z,18.35
2022-11-20T21:43:46.966Z,17.23
2022-11-20T21:46:15.859Z,15.77
2022-11-20T21:48:44.437Z,17.00
2022-11-20T21:51:16.377Z,15.35
2022-11-20T21:53:44.289Z,16.88
2022-11-20T21:56:16.342Z,16.75
2022-11-20T21:58:46.353Z,14.63
2022-11-20T22:01:19.124Z,14.77
2022-11-20T22:03:57.551Z,13.80
2022-11-20T22:06:25.910Z,13.98
2022-11-20T22:08:53.520Z,15.13
2022-11-20T22:11:21.876Z,16.23
2022-11-20T22:14:07.561Z,16.08
2022-11-20T22:16:36.214Z,15.32
2022-11-20T22:19:04.393Z,15.40
2022-11-20T22:21:31.895Z,15.55
2022-11-20T22:23:59.500Z,17.90
2022-11-20T22:26:33.812Z,17.95
2022-11-20T22:29:03.275Z,17.95
2022-11-20T22:31:31.213Z,21.42
2022-11-20T22:34:00.718Z,19.98
2022-11-20T22:36:29.331Z,21.13
2022-11-20T22:38:56.747Z,20.13
2022-11-20T22:41:27.208Z,20.00
2022-11-20T22:43:59.159Z,21.83
2022-11-20T22:46:27.681Z,19.90
2022-11-20T22:48:58.155Z,19.25
2022-11-20T22:51:27.472Z,20.33
2022-11-20T22:53:54.644Z,19.90
2022-11-20T22:56:22.129Z,18.35
2022-11-20T22:58:51.213Z,19.65
2022-11-20T23:01:21.245Z,20.42
2022-11-20T23:03:53.349Z,19.25
2022-11-20T23:06:21.472Z,19.60
2022-11-20T23:08:49.061Z,19.30
2022-11-20T23:11:18.508Z,19.63
2022-11-20T23:13:46.315Z,21.33
2022-11-20T23:16:15.900Z,19.00
2022-11-20T23:18:43.903Z,18.38
2022-11-20T23:21:14.759Z,19.60
2022-11-20T23:23:42.309Z,19.05
2022-11-20T23:26:11.899Z,20.08
2022-11-20T23:28:40.079Z,19.63
2022-11-20T23:31:07.274Z,19.65
2022-11-20T23:33:38.982Z,20.08
2022-11-20T23:36:07.329Z,19.83
2022-11-20T23:38:34.750Z,17.08
2022-11-20T23:41:01.905Z,19.75
2022-11-20T23:43:28.942Z,19.88
2022-11-20T23:45:58.181Z,17.83
2022-11-20T23:48:27.469Z,18.15
2022-11-20T23:50:54.265Z,17.17
2022-11-20T23:53:22.190Z,18.95
2022-11-20T23:55:51.800Z,18.10
2022-11-20T23:58:19.862Z,18.33
